createdAt,value
2019-05-18T00:00:22.455Z,67.60
2019-05-18T00:02:54.477Z,67.70
2019-05-18T00:05:29.298Z,68.00
2019-05-18T00:08:00.974Z,68.10
2019-05-18T00:10:33.587Z,68.30
2019-05-18T00:13:05.692Z,68.20
2019-05-18T00:15:37.789Z,68.30
2019-05-18T00:18:29.449Z,68.30
2019-05-18T00:21:10.566Z,68.50
2019-05-18T00:23:44.059Z,68.40
2019-05-18T00:26:16.079Z,68.40
2019-05-18T00:28:50.260Z,68.10
2019-05-18T00:31:23.025Z,67.80
2019-05-18T00:33:54.750Z,67.60
2019-05-18T00:36:26.427Z,67.50
2019-05-18T00:38:58.259Z,67.30
2019-05-18T00:41:30.302Z,67.50
2019-05-18T00:44:05.104Z,67.40
2019-05-18T00:46:36.626Z,67.60
2019-05-18T00:49:08.205Z,67.80
2019-05-18T00:51:40.810Z,67.90
2019-05-18T00:54:13.147Z,68.20
2019-05-18T00:56:44.865Z,68.00
2019-05-18T00:59:17.049Z,68.00
2019-05-18T01:01:49.011Z,68.20
2019-05-18T01:04:20.516Z,68.10
2019-05-18T01:06:52.159Z,68.20
2019-05-18T01:09:24.144Z,68.30
2019-05-18T01:11:56.080Z,68.30
2019-05-18T01:14:27.805Z,68.50
2019-05-18T01:16:59.811Z,68.60
2019-05-18T01:19:33.081Z,68.60
2019-05-18T01:22:04.993Z,68.70
2019-05-18T01:24:36.491Z,69.40
2019-05-18T01:27:10.169Z,69.40
2019-05-18T01:29:42.706Z,69.20
2019-05-18T01:32:17.139Z,69.00
2019-05-18T01:34:48.782Z,68.80
2019-05-18T01:37:20.333Z,68.80
2019-05-18T01:39:51.868Z,68.80
2019-05-18T01:42:23.938Z,68.80
2019-05-18T01:44:57.565Z,68.80
2019-05-18T01:47:29.333Z,68.80
2019-05-18T01:50:00.779Z,68.80
2019-05-18T01:52:32.656Z,69.00
2019-05-18T01:55:04.219Z,69.00
2019-05-18T01:57:36.295Z,69.00
2019-05-18T02:00:09.459Z,69.00
2019-05-18T02:02:42.017Z,69.10
2019-05-18T02:05:14.823Z,69.20
2019-05-18T02:07:46.368Z,69.30
2019-05-18T02:10:18.380Z,69.30
2019-05-18T02:12:49.954Z,69.30
2019-05-18T02:15:21.442Z,69.40
2019-05-18T02:17:53.561Z,69.50
2019-05-18T02:20:25.094Z,69.60
2019-05-18T02:22:56.837Z,70.20
2019-05-18T02:25:28.374Z,70.10
2019-05-18T02:28:02.750Z,70.20
2019-05-18T02:30:34.295Z,70.60
2019-05-18T02:33:06.860Z,70.50
2019-05-18T02:35:38.435Z,69.80
2019-05-18T02:38:16.623Z,69.40
2019-05-18T02:40:49.968Z,69.60
2019-05-18T02:43:21.579Z,69.60
2019-05-18T02:45:53.417Z,69.10
2019-05-18T02:48:25.028Z,69.00
2019-05-18T02:50:57.897Z,69.10
2019-05-18T02:53:31.931Z,68.80
2019-05-18T02:56:04.912Z,68.60
2019-05-18T02:58:36.863Z,68.60
2019-05-18T03:01:08.802Z,68.40
2019-05-18T03:03:41.043Z,68.40
2019-05-18T03:06:13.050Z,68.40
2019-05-18T03:08:44.593Z,68.60
2019-05-18T03:11:17.300Z,68.60
2019-05-18T03:13:54.639Z,68.70
2019-05-18T03:16:26.487Z,68.90
2019-05-18T03:19:08.246Z,68.90
2019-05-18T03:21:31.883Z,69.10
2019-05-18T03:24:03.522Z,69.30
2019-05-18T03:26:35.106Z,69.50
2019-05-18T03:29:07.436Z,69.70
2019-05-18T03:31:40.047Z,69.80
2019-05-18T03:34:11.572Z,70.10
2019-05-18T03:36:44.210Z,70.20
2019-05-18T03:39:16.309Z,71.30
2019-05-18T03:41:47.829Z,70.40
2019-05-18T03:44:19.398Z,70.50
2019-05-18T03:46:54.382Z,71.20
2019-05-18T03:49:28.228Z,70.60
2019-05-18T03:51:59.879Z,70.90
2019-05-18T03:54:32.143Z,71.30
2019-05-18T03:57:03.985Z,71.70
2019-05-18T03:59:36.521Z,72.10
2019-05-18T04:02:08.490Z,71.70
2019-05-18T04:04:40.016Z,71.60
2019-05-18T04:07:11.477Z,71.40
2019-05-18T04:09:44.344Z,71.40
2019-05-18T04:12:17.306Z,71.80
2019-05-18T04:14:51.199Z,71.60
2019-05-18T04:17:22.737Z,71.50
2019-05-18T04:19:54.299Z,71.40
2019-05-18T04:22:27.665Z,71.40
2019-05-18T04:24:58.058Z,71.40
2019-05-18T04:27:32.073Z,71.30
2019-05-18T04:30:03.724Z,70.50
2019-05-18T04:32:38.486Z,70.40
2019-05-18T04:35:11.293Z,70.30
2019-05-18T04:37:44.739Z,70.30
2019-05-18T04:40:16.355Z,69.90
2019-05-18T04:42:48.343Z,70.10
2019-05-18T04:45:20.259Z,70.10
2019-05-18T04:47:51.801Z,70.30
2019-05-18T04:50:23.673Z,70.30
2019-05-18T04:52:55.640Z,70.30
2019-05-18T04:55:27.381Z,70.30
2019-05-18T04:57:59.453Z,70.30
2019-05-18T05:00:32.387Z,70.30
2019-05-18T05:03:04.388Z,70.30
2019-05-18T05:05:36.879Z,70.10
2019-05-18T05:08:09.799Z,69.80
2019-05-18T05:10:41.980Z,69.90
2019-05-18T05:13:13.799Z,69.90
2019-05-18T05:15:45.170Z,69.90
2019-05-18T05:18:16.459Z,69.50
2019-05-18T05:20:47.857Z,69.30
2019-05-18T05:23:19.204Z,69.20
2019-05-18T05:25:50.929Z,69.30
2019-05-18T05:28:28.524Z,69.20
2019-05-18T05:31:03.715Z,69.10
2019-05-18T05:33:35.196Z,69.10
2019-05-18T05:36:07.823Z,69.00
2019-05-18T05:38:39.779Z,69.10
2019-05-18T05:41:16.358Z,69.10
2019-05-18T05:43:45.704Z,69.10
2019-05-18T05:46:17.820Z,69.20
2019-05-18T05:48:49.484Z,69.20
2019-05-18T05:51:20.993Z,69.20
2019-05-18T05:53:52.404Z,69.30
2019-05-18T05:56:23.908Z,69.40
2019-05-18T05:58:55.324Z,69.50
2019-05-18T06:01:30.794Z,69.50
2019-05-18T06:04:02.592Z,69.40
2019-05-18T06:06:33.955Z,69.50
2019-05-18T06:09:07.397Z,69.50
2019-05-18T06:11:39.178Z,69.60
2019-05-18T06:14:11.027Z,69.60
2019-05-18T06:16:42.417Z,69.60
2019-05-18T06:19:18.666Z,69.60
2019-05-18T06:21:50.155Z,69.70
2019-05-18T06:24:21.440Z,69.50
2019-05-18T06:26:52.854Z,69.50
2019-05-18T06:29:24.566Z,69.40
2019-05-18T06:31:56.269Z,69.30
2019-05-18T06:34:28.014Z,69.30
2019-05-18T06:36:59.817Z,69.30
2019-05-18T06:39:31.219Z,69.40
2019-05-18T06:42:03.600Z,69.30
2019-05-18T06:44:35.862Z,69.30
2019-05-18T06:47:10.113Z,69.20
2019-05-18T06:49:41.421Z,69.10
2019-05-18T06:52:15.288Z,69.20
2019-05-18T06:54:47.504Z,69.10
2019-05-18T06:57:19.430Z,69.00
2019-05-18T06:59:54.932Z,68.70
2019-05-18T07:02:27.049Z,68.70
2019-05-18T07:05:02.069Z,68.50
2019-05-18T07:07:39.493Z,68.40
2019-05-18T07:10:10.893Z,68.20
2019-05-18T07:12:42.398Z,68.00
2019-05-18T07:15:15.328Z,67.80
2019-05-18T07:17:47.875Z,67.90
2019-05-18T07:20:19.711Z,67.80
2019-05-18T07:22:51.050Z,67.70
2019-05-18T07:25:22.547Z,67.50
2019-05-18T07:27:53.913Z,67.30
2019-05-18T07:30:26.159Z,67.10
2019-05-18T07:33:03.042Z,67.10
2019-05-18T07:35:31.491Z,67.10
2019-05-18T07:38:03.038Z,66.90
2019-05-18T07:40:34.532Z,66.70
2019-05-18T07:43:06.689Z,66.80
2019-05-18T07:45:39.312Z,66.30
2019-05-18T07:48:11.373Z,66.10
2019-05-18T07:50:43.189Z,65.90
2019-05-18T07:53:16.607Z,65.40
2019-05-18T07:55:48.894Z,65.00
2019-05-18T07:58:21.096Z,64.70
2019-05-18T08:00:53.355Z,64.50
2019-05-18T08:03:25.486Z,64.70
2019-05-18T08:05:59.597Z,64.50
2019-05-18T08:08:34.406Z,64.50
2019-05-18T08:11:06.342Z,64.00
2019-05-18T08:13:38.915Z,64.20
2019-05-18T08:16:10.727Z,63.80
2019-05-18T08:18:42.723Z,64.00
2019-05-18T08:21:14.540Z,63.70
2019-05-18T08:23:47.027Z,63.30
2019-05-18T08:26:19.293Z,63.20
2019-05-18T08:28:50.865Z,63.40
2019-05-18T08:31:22.310Z,63.30
2019-05-18T08:33:57.555Z,63.00
2019-05-18T08:36:31.480Z,62.60
2019-05-18T08:39:04.970Z,62.30
2019-05-18T08:41:37.030Z,62.10
2019-05-18T08:44:08.425Z,61.80
2019-05-18T08:46:39.739Z,62.30
2019-05-18T08:49:11.022Z,61.20
2019-05-18T08:51:42.711Z,61.30
2019-05-18T08:54:15.644Z,61.20
2019-05-18T08:56:47.347Z,61.00
2019-05-18T08:59:18.886Z,60.60
2019-05-18T09:01:50.123Z,60.30
2019-05-18T09:04:23.314Z,59.80
2019-05-18T09:06:54.688Z,59.60
2019-05-18T09:09:26.355Z,59.70
2019-05-18T09:11:58.137Z,59.40
2019-05-18T09:14:29.826Z,59.30
2019-05-18T09:17:01.437Z,60.00
2019-05-18T09:19:32.842Z,59.90
2019-05-18T09:22:04.162Z,59.70
2019-05-18T09:24:35.477Z,59.80
2019-05-18T09:27:06.741Z,60.40
2019-05-18T09:29:38.129Z,60.60
2019-05-18T09:32:10.215Z,61.00
2019-05-18T09:34:42.779Z,60.50
2019-05-18T09:37:15.131Z,60.10
2019-05-18T09:39:46.894Z,59.70
2019-05-18T09:42:19.002Z,59.40
2019-05-18T09:44:50.563Z,59.70
2019-05-18T09:47:22.565Z,59.10
2019-05-18T09:49:54.465Z,58.60
2019-05-18T09:52:43.567Z,58.50
2019-05-18T09:54:59.724Z,58.30
2019-05-18T09:57:31.199Z,58.00
2019-05-18T10:00:04.062Z,57.80
2019-05-18T10:02:35.834Z,58.00
2019-05-18T10:05:09.007Z,57.50
2019-05-18T10:07:41.094Z,57.50
2019-05-18T10:10:13.125Z,57.50
2019-05-18T10:12:44.814Z,57.10
2019-05-18T10:15:17.144Z,57.00
2019-05-18T10:17:49.576Z,57.10
2019-05-18T10:20:21.397Z,57.30
2019-05-18T10:23:04.230Z,57.10
2019-05-18T10:25:26.185Z,56.70
2019-05-18T10:27:57.643Z,56.80
2019-05-18T10:30:29.038Z,56.60
2019-05-18T10:33:00.452Z,56.50
2019-05-18T10:35:32.805Z,56.20
2019-05-18T10:38:04.315Z,55.70
2019-05-18T10:40:36.523Z,54.70
2019-05-18T10:43:07.752Z,54.20
2019-05-18T10:45:39.186Z,53.80
2019-05-18T10:48:10.561Z,53.80
2019-05-18T10:50:42.301Z,53.90
2019-05-18T10:53:27.907Z,54.20
2019-05-18T10:55:47.457Z,54.30
2019-05-18T10:58:19.717Z,54.60
2019-05-18T11:00:51.427Z,55.20
2019-05-18T11:03:23.100Z,55.80
2019-05-18T11:05:54.381Z,56.20
2019-05-18T11:08:26.411Z,56.40
2019-05-18T11:10:58.601Z,56.20
2019-05-18T11:13:29.985Z,56.60
2019-05-18T17:24:05.023Z,59.80
2019-05-18T17:26:51.651Z,59.70
2019-05-18T17:29:09.760Z,59.50
2019-05-18T17:31:40.993Z,59.60
2019-05-18T17:34:12.477Z,59.50
2019-05-18T17:36:43.853Z,60.30
2019-05-18T17:39:15.299Z,59.80
2019-05-18T17:41:55.222Z,59.70
2019-05-18T17:44:29.732Z,59.80
2019-05-18T17:47:02.935Z,59.70
2019-05-18T17:49:35.572Z,59.80
2019-05-18T17:52:07.390Z,59.90
2019-05-18T17:54:40.348Z,60.00
2019-05-18T17:57:18.320Z,59.80
2019-05-18T17:59:49.817Z,59.80
2019-05-18T18:02:22.212Z,59.90
2019-05-18T18:04:54.360Z,59.90
2019-05-18T18:07:26.947Z,59.70
2019-05-18T18:10:01.758Z,59.90
2019-05-18T18:12:34.956Z,59.90
2019-05-18T18:15:09.722Z,60.00
2019-05-18T18:17:41.633Z,60.10
2019-05-18T18:20:13.915Z,60.00
2019-05-18T18:22:45.565Z,59.80
2019-05-18T18:25:16.801Z,60.10
2019-05-18T18:27:48.669Z,59.90
2019-05-18T18:30:23.250Z,60.20
2019-05-18T18:32:55.111Z,59.90
2019-05-18T18:35:26.847Z,60.10
2019-05-18T18:37:59.953Z,59.90
2019-05-18T18:40:31.343Z,60.10
2019-05-18T18:43:03.103Z,60.00
2019-05-18T18:45:34.724Z,60.10
2019-05-18T18:48:07.033Z,60.20
2019-05-18T18:50:40.684Z,60.10
2019-05-18T18:53:12.300Z,60.20
2019-05-18T18:55:43.588Z,60.20
2019-05-18T18:58:14.921Z,60.40
2019-05-18T19:00:46.862Z,60.20
2019-05-18T19:03:18.148Z,59.60
2019-05-18T19:05:49.824Z,59.60
2019-05-18T19:08:23.981Z,59.60
2019-05-18T19:10:55.865Z,59.90
2019-05-18T19:13:27.433Z,59.20
2019-05-18T19:15:58.789Z,59.50
2019-05-18T19:18:30.210Z,59.80
2019-05-18T19:21:02.203Z,59.60
2019-05-18T19:23:33.800Z,59.60
2019-05-18T19:26:05.344Z,59.50
2019-05-18T19:28:39.349Z,60.10
2019-05-18T19:31:12.522Z,59.90
2019-05-18T19:33:44.854Z,59.70
2019-05-18T19:36:16.217Z,60.20
2019-05-18T19:38:48.437Z,60.10
2019-05-18T19:41:20.428Z,60.10
2019-05-18T19:43:51.755Z,60.00
2019-05-18T19:46:24.023Z,59.80
2019-05-18T19:48:55.446Z,60.40
2019-05-18T19:51:26.932Z,60.20
2019-05-18T19:53:58.474Z,60.40
2019-05-18T19:56:37.422Z,60.00
2019-05-18T19:59:02.694Z,60.00
2019-05-18T20:01:33.752Z,60.40
2019-05-18T20:04:05.563Z,60.20
2019-05-18T20:06:36.854Z,60.00
2019-05-18T20:09:08.341Z,60.00
2019-05-18T20:11:39.796Z,59.80
2019-05-18T20:14:11.254Z,59.10
2019-05-18T20:16:43.035Z,59.50
2019-05-18T20:19:14.751Z,59.80
2019-05-18T20:21:46.038Z,59.80
2019-05-18T20:24:17.422Z,59.80
2019-05-18T20:26:49.120Z,59.40
2019-05-18T20:29:20.569Z,58.90
2019-05-18T20:31:52.719Z,59.30
2019-05-18T20:34:24.332Z,59.40
2019-05-18T20:36:56.574Z,59.50
2019-05-18T20:39:28.402Z,59.50
2019-05-18T20:42:00.047Z,59.60
2019-05-18T20:44:31.692Z,59.70
2019-05-18T20:47:04.721Z,59.60
2019-05-18T20:49:36.153Z,59.70
2019-05-18T20:52:08.439Z,59.60
2019-05-18T20:54:40.174Z,59.80
2019-05-18T20:57:11.700Z,59.60
2019-05-18T20:59:43.052Z,60.40
2019-05-18T21:02:14.501Z,59.40
2019-05-18T21:04:45.896Z,59.40
2019-05-18T21:07:17.611Z,59.70
2019-05-18T21:09:49.726Z,59.80
2019-05-18T21:12:21.311Z,59.30
2019-05-18T21:14:52.714Z,59.10
2019-05-18T21:17:24.905Z,59.30
2019-05-18T21:19:56.556Z,59.40
2019-05-18T21:22:27.903Z,59.20
2019-05-18T21:24:59.707Z,59.30
2019-05-18T21:27:31.319Z,59.20
2019-05-18T21:30:04.792Z,59.10
2019-05-18T21:32:36.359Z,59.20
2019-05-18T21:35:08.506Z,59.40
2019-05-18T21:37:40.155Z,59.50
2019-05-18T21:40:11.877Z,59.70
2019-05-18T21:42:43.559Z,59.70
2019-05-18T21:45:15.502Z,59.70
2019-05-18T21:47:46.824Z,59.80
2019-05-18T21:50:19.111Z,59.80
2019-05-18T21:52:55.679Z,59.90
2019-05-18T21:55:27.307Z,60.10
2019-05-18T21:57:58.623Z,60.10
2019-05-18T22:00:30.675Z,60.10
2019-05-18T22:03:04.072Z,60.20
2019-05-18T22:05:35.840Z,60.20
2019-05-18T22:08:07.452Z,60.30
2019-05-18T22:10:38.827Z,60.30
2019-05-18T22:13:10.139Z,61.30
2019-05-18T22:15:41.852Z,60.70
2019-05-18T22:18:23.971Z,60.90
2019-05-18T22:20:47.101Z,61.10
2019-05-18T22:23:18.434Z,61.20
2019-05-18T22:25:49.795Z,61.50
2019-05-18T22:28:21.641Z,61.70
2019-05-18T22:30:53.336Z,62.00
2019-05-18T22:33:25.179Z,62.30
2019-05-18T22:35:56.598Z,62.40
2019-05-18T22:38:28.006Z,62.50
2019-05-18T22:41:05.084Z,62.40
2019-05-18T22:43:36.729Z,62.50
2019-05-18T22:46:08.094Z,62.50
2019-05-18T22:48:41.657Z,62.80
2019-05-18T22:51:12.437Z,63.60
2019-05-18T22:53:46.586Z,63.10
2019-05-18T22:56:16.019Z,63.30
2019-05-18T22:58:47.262Z,63.50
2019-05-18T23:01:18.597Z,63.70
2019-05-18T23:03:51.671Z,63.90
2019-05-18T23:06:23.234Z,64.20
2019-05-18T23:08:54.546Z,64.30
2019-05-18T23:11:27.086Z,64.60
2019-05-18T23:13:58.333Z,64.60
2019-05-18T23:16:29.615Z,64.90
2019-05-18T23:19:00.858Z,65.00
2019-05-18T23:21:32.571Z,65.20
2019-05-18T23:24:04.017Z,65.40
2019-05-18T23:29:25.090Z,65.80
2019-05-18T23:32:00.161Z,65.90
2019-05-18T23:34:37.059Z,66.10
2019-05-18T23:37:10.267Z,66.30
2019-05-18T23:39:42.299Z,66.40
2019-05-18T23:42:14.310Z,66.60
2019-05-18T23:44:47.580Z,66.70
2019-05-18T23:47:19.657Z,66.70
2019-05-18T23:49:52.214Z,66.80
2019-05-18T23:52:24.126Z,66.90
2019-05-18T23:54:56.723Z,67.10
2019-05-18T23:57:28.618Z,67.20
